sensor_id;sensor_type;location;lat;lon;timestamp;temperature;humidity
29403;DHT22;16382;59.942;30.472;2022-11-15T00:01:08;2.80;99.90
29403;DHT22;16382;59.942;30.472;2022-11-15T00:03:55;2.80;99.90
29403;DHT22;16382;59.942;30.472;2022-11-15T00:06:41;2.80;99.90
29403;DHT22;16382;59.942;30.472;2022-11-15T00:09:27;2.90;99.90
29403;DHT22;16382;59.942;30.472;2022-11-15T00:12:13;2.90;99.90
29403;DHT22;16382;59.942;30.472;2022-11-15T00:14:59;2.80;99.90
29403;DHT22;16382;59.942;30.472;2022-11-15T00:17:48;2.90;99.90
29403;DHT22;16382;59.942;30.472;2022-11-15T00:20:36;2.90;99.90
29403;DHT22;16382;59.942;30.472;2022-11-15T00:23:22;2.90;99.90
29403;DHT22;16382;59.942;30.472;2022-11-15T00:26:11;2.90;99.90
29403;DHT22;16382;59.942;30.472;2022-11-15T00:28:58;2.90;99.90
29403;DHT22;16382;59.942;30.472;2022-11-15T00:31:44;2.90;99.90
29403;DHT22;16382;59.942;30.472;2022-11-15T00:34:30;2.80;99.90
29403;DHT22;16382;59.942;30.472;2022-11-15T00:37:17;2.80;99.90
29403;DHT22;16382;59.942;30.472;2022-11-15T00:40:03;2.70;99.90
29403;DHT22;16382;59.942;30.472;2022-11-15T00:42:50;2.80;99.90
29403;DHT22;16382;59.942;30.472;2022-11-15T00:45:36;2.70;99.90
29403;DHT22;16382;59.942;30.472;2022-11-15T00:48:22;2.80;99.90
29403;DHT22;16382;59.942;30.472;2022-11-15T00:51:08;2.80;99.90
29403;DHT22;16382;59.942;30.472;2022-11-15T00:53:55;2.80;99.90
29403;DHT22;16382;59.942;30.472;2022-11-15T00:56:42;2.80;99.90
29403;DHT22;16382;59.942;30.472;2022-11-15T00:59:28;2.80;99.90
29403;DHT22;16382;59.942;30.472;2022-11-15T01:02:14;2.80;99.90
29403;DHT22;16382;59.942;30.472;2022-11-15T01:05:00;2.80;99.90
29403;DHT22;16382;59.942;30.472;2022-11-15T01:07:46;2.80;99.90
29403;DHT22;16382;59.942;30.472;2022-11-15T01:10:33;2.70;99.90
29403;DHT22;16382;59.942;30.472;2022-11-15T01:13:19;2.70;99.90
29403;DHT22;16382;59.942;30.472;2022-11-15T01:16:09;2.70;99.90
29403;DHT22;16382;59.942;30.472;2022-11-15T01:18:56;2.70;99.90
29403;DHT22;16382;59.942;30.472;2022-11-15T01:21:42;2.70;99.90
29403;DHT22;16382;59.942;30.472;2022-11-15T01:24:28;2.70;99.90
29403;DHT22;16382;59.942;30.472;2022-11-15T01:27:16;2.70;99.90
29403;DHT22;16382;59.942;30.472;2022-11-15T01:30:03;2.60;99.90
29403;DHT22;16382;59.942;30.472;2022-11-15T01:32:49;2.60;99.90
29403;DHT22;16382;59.942;30.472;2022-11-15T01:35:38;2.60;99.90
29403;DHT22;16382;59.942;30.472;2022-11-15T01:38:25;2.70;99.90
29403;DHT22;16382;59.942;30.472;2022-11-15T01:41:18;2.70;99.90
29403;DHT22;16382;59.942;30.472;2022-11-15T01:47:41;2.70;99.90
29403;DHT22;16382;59.942;30.472;2022-11-15T01:50:32;2.60;99.90
29403;DHT22;16382;59.942;30.472;2022-11-15T01:53:19;2.70;99.90
29403;DHT22;16382;59.942;30.472;2022-11-15T01:56:13;2.60;99.90
29403;DHT22;16382;59.942;30.472;2022-11-15T01:59:05;2.60;99.90
29403;DHT22;16382;59.942;30.472;2022-11-15T02:01:54;2.70;99.90
29403;DHT22;16382;59.942;30.472;2022-11-15T02:04:42;2.60;99.90
29403;DHT22;16382;59.942;30.472;2022-11-15T02:07:31;2.60;99.90
29403;DHT22;16382;59.942;30.472;2022-11-15T02:10:20;2.60;99.90
29403;DHT22;16382;59.942;30.472;2022-11-15T02:13:06;2.60;99.90
29403;DHT22;16382;59.942;30.472;2022-11-15T02:16:00;2.60;99.90
29403;DHT22;16382;59.942;30.472;2022-11-15T02:18:57;2.60;99.90
29403;DHT22;16382;59.942;30.472;2022-11-15T02:21:52;2.60;99.90
29403;DHT22;16382;59.942;30.472;2022-11-15T02:24:54;2.60;99.90
29403;DHT22;16382;59.942;30.472;2022-11-15T02:28:02;2.60;99.90
29403;DHT22;16382;59.942;30.472;2022-11-15T02:31:03;2.60;99.90
29403;DHT22;16382;59.942;30.472;2022-11-15T02:33:54;2.60;99.90
29403;DHT22;16382;59.942;30.472;2022-11-15T02:36:52;2.50;99.90
29403;DHT22;16382;59.942;30.472;2022-11-15T02:39:46;2.50;99.90
29403;DHT22;16382;59.942;30.472;2022-11-15T02:42:39;2.40;99.90
29403;DHT22;16382;59.942;30.472;2022-11-15T02:45:49;2.40;99.90
29403;DHT22;16382;59.942;30.472;2022-11-15T02:48:39;2.40;99.90
29403;DHT22;16382;59.942;30.472;2022-11-15T02:51:25;2.30;99.90
29403;DHT22;16382;59.942;30.472;2022-11-15T02:54:14;2.30;99.90
29403;DHT22;16382;59.942;30.472;2022-11-15T02:57:05;2.40;99.90
29403;DHT22;16382;59.942;30.472;2022-11-15T03:00:05;2.40;99.90
29403;DHT22;16382;59.942;30.472;2022-11-15T03:03:20;2.50;99.90
29403;DHT22;16382;59.942;30.472;2022-11-15T03:06:33;2.40;99.90
29403;DHT22;16382;59.942;30.472;2022-11-15T03:09:28;2.40;99.90
29403;DHT22;16382;59.942;30.472;2022-11-15T03:12:24;2.40;99.90
29403;DHT22;16382;59.942;30.472;2022-11-15T03:15:17;2.40;99.90
29403;DHT22;16382;59.942;30.472;2022-11-15T03:18:12;2.40;99.90
29403;DHT22;16382;59.942;30.472;2022-11-15T03:21:04;2.40;99.90
29403;DHT22;16382;59.942;30.472;2022-11-15T03:23:53;2.50;99.90
29403;DHT22;16382;59.942;30.472;2022-11-15T03:26:41;2.50;99.90
29403;DHT22;16382;59.942;30.472;2022-11-15T03:29:32;2.40;99.90
29403;DHT22;16382;59.942;30.472;2022-11-15T03:32:23;2.40;99.90
29403;DHT22;16382;59.942;30.472;2022-11-15T03:35:13;2.40;99.90
29403;DHT22;16382;59.942;30.472;2022-11-15T03:38:05;2.40;99.90
29403;DHT22;16382;59.942;30.472;2022-11-15T03:40:59;2.40;99.90
29403;DHT22;16382;59.942;30.472;2022-11-15T03:43:49;2.40;99.90
29403;DHT22;16382;59.942;30.472;2022-11-15T03:46:42;2.40;99.90
29403;DHT22;16382;59.942;30.472;2022-11-15T03:49:33;2.40;99.90
29403;DHT22;16382;59.942;30.472;2022-11-15T03:52:21;2.40;99.90
29403;DHT22;16382;59.942;30.472;2022-11-15T03:55:15;2.30;99.90
29403;DHT22;16382;59.942;30.472;2022-11-15T03:58:04;2.30;99.90
29403;DHT22;16382;59.942;30.472;2022-11-15T04:00:51;2.30;99.90
29403;DHT22;16382;59.942;30.472;2022-11-15T04:14:23;2.30;99.90
29403;DHT22;16382;59.942;30.472;2022-11-15T04:18:04;2.30;99.90
29403;DHT22;16382;59.942;30.472;2022-11-15T04:25:09;2.30;99.90
29403;DHT22;16382;59.942;30.472;2022-11-15T04:38:48;2.40;99.90
29403;DHT22;16382;59.942;30.472;2022-11-15T04:41:52;2.40;99.90
29403;DHT22;16382;59.942;30.472;2022-11-15T04:44:38;2.30;99.90
29403;DHT22;16382;59.942;30.472;2022-11-15T04:47:26;2.30;99.90
29403;DHT22;16382;59.942;30.472;2022-11-15T04:50:15;2.30;99.90
29403;DHT22;16382;59.942;30.472;2022-11-15T04:53:01;2.30;99.90
29403;DHT22;16382;59.942;30.472;2022-11-15T04:55:48;2.30;99.90
29403;DHT22;16382;59.942;30.472;2022-11-15T04:58:34;2.30;99.90
29403;DHT22;16382;59.942;30.472;2022-11-15T05:01:20;2.30;99.90
29403;DHT22;16382;59.942;30.472;2022-11-15T05:04:11;2.30;99.90
29403;DHT22;16382;59.942;30.472;2022-11-15T05:07:05;2.20;99.90
29403;DHT22;16382;59.942;30.472;2022-11-15T05:09:51;2.20;99.90
29403;DHT22;16382;59.942;30.472;2022-11-15T05:12:38;2.20;99.90
29403;DHT22;16382;59.942;30.472;2022-11-15T05:15:25;2.20;99.90
29403;DHT22;16382;59.942;30.472;2022-11-15T05:18:10;2.20;99.90
29403;DHT22;16382;59.942;30.472;2022-11-15T05:21:03;2.20;99.90
29403;DHT22;16382;59.942;30.472;2022-11-15T05:23:49;2.30;99.90
29403;DHT22;16382;59.942;30.472;2022-11-15T05:26:35;2.20;99.90
29403;DHT22;16382;59.942;30.472;2022-11-15T05:29:21;2.20;99.90
29403;DHT22;16382;59.942;30.472;2022-11-15T05:32:09;2.20;99.90
29403;DHT22;16382;59.942;30.472;2022-11-15T05:34:55;2.30;99.90
29403;DHT22;16382;59.942;30.472;2022-11-15T05:37:43;2.30;99.90
29403;DHT22;16382;59.942;30.472;2022-11-15T05:40:30;2.20;99.90
29403;DHT22;16382;59.942;30.472;2022-11-15T05:43:17;2.20;99.90
29403;DHT22;16382;59.942;30.472;2022-11-15T05:46:04;2.30;99.90
29403;DHT22;16382;59.942;30.472;2022-11-15T05:48:53;2.20;99.90
29403;DHT22;16382;59.942;30.472;2022-11-15T05:51:40;2.20;99.90
29403;DHT22;16382;59.942;30.472;2022-11-15T05:54:29;2.20;99.90
29403;DHT22;16382;59.942;30.472;2022-11-15T05:57:16;2.20;99.90
29403;DHT22;16382;59.942;30.472;2022-11-15T06:00:04;2.20;99.90
29403;DHT22;16382;59.942;30.472;2022-11-15T06:02:52;2.20;99.90
29403;DHT22;16382;59.942;30.472;2022-11-15T06:05:38;2.30;99.90
29403;DHT22;16382;59.942;30.472;2022-11-15T06:08:23;2.30;99.90
29403;DHT22;16382;59.942;30.472;2022-11-15T06:11:11;2.30;99.90
29403;DHT22;16382;59.942;30.472;2022-11-15T06:13:57;2.30;99.90
29403;DHT22;16382;59.942;30.472;2022-11-15T06:16:44;2.20;99.90
29403;DHT22;16382;59.942;30.472;2022-11-15T06:19:30;2.20;99.90
29403;DHT22;16382;59.942;30.472;2022-11-15T06:22:17;2.20;99.90
29403;DHT22;16382;59.942;30.472;2022-11-15T06:25:04;2.20;99.90
29403;DHT22;16382;59.942;30.472;2022-11-15T06:27:52;2.20;99.90
29403;DHT22;16382;59.942;30.472;2022-11-15T06:30:38;2.20;99.90
29403;DHT22;16382;59.942;30.472;2022-11-15T06:33:25;2.20;99.90
29403;DHT22;16382;59.942;30.472;2022-11-15T06:36:12;2.10;99.90
29403;DHT22;16382;59.942;30.472;2022-11-15T06:39:00;2.10;99.90
29403;DHT22;16382;59.942;30.472;2022-11-15T06:41:46;2.10;99.90
29403;DHT22;16382;59.942;30.472;2022-11-15T06:44:33;2.10;99.90
29403;DHT22;16382;59.942;30.472;2022-11-15T06:47:19;2.10;99.90
29403;DHT22;16382;59.942;30.472;2022-11-15T06:50:05;2.10;99.90
29403;DHT22;16382;59.942;30.472;2022-11-15T06:52:52;2.10;99.90
29403;DHT22;16382;59.942;30.472;2022-11-15T06:55:39;2.10;99.90
29403;DHT22;16382;59.942;30.472;2022-11-15T06:58:24;2.20;99.90
29403;DHT22;16382;59.942;30.472;2022-11-15T07:01:13;2.20;99.90
29403;DHT22;16382;59.942;30.472;2022-11-15T07:03:58;2.10;99.90
29403;DHT22;16382;59.942;30.472;2022-11-15T07:06:46;2.20;99.90
29403;DHT22;16382;59.942;30.472;2022-11-15T07:09:32;2.20;99.90
29403;DHT22;16382;59.942;30.472;2022-11-15T07:12:19;2.20;99.90
29403;DHT22;16382;59.942;30.472;2022-11-15T07:15:06;2.30;99.90
29403;DHT22;16382;59.942;30.472;2022-11-15T07:17:54;2.30;99.90
29403;DHT22;16382;59.942;30.472;2022-11-15T07:20:40;2.40;99.90
29403;DHT22;16382;59.942;30.472;2022-11-15T07:23:26;2.30;99.90
29403;DHT22;16382;59.942;30.472;2022-11-15T07:26:12;2.30;99.90
29403;DHT22;16382;59.942;30.472;2022-11-15T07:28:58;2.30;99.90
29403;DHT22;16382;59.942;30.472;2022-11-15T07:31:44;2.30;99.90
29403;DHT22;16382;59.942;30.472;2022-11-15T07:34:31;2.30;99.90
29403;DHT22;16382;59.942;30.472;2022-11-15T07:37:18;2.30;99.90
29403;DHT22;16382;59.942;30.472;2022-11-15T07:40:05;2.30;99.90
29403;DHT22;16382;59.942;30.472;2022-11-15T07:42:52;2.30;99.90
29403;DHT22;16382;59.942;30.472;2022-11-15T07:45:41;2.30;99.90
29403;DHT22;16382;59.942;30.472;2022-11-15T07:48:27;2.30;99.90
29403;DHT22;16382;59.942;30.472;2022-11-15T07:51:16;2.30;99.90
29403;DHT22;16382;59.942;30.472;2022-11-15T07:54:02;2.30;99.90
29403;DHT22;16382;59.942;30.472;2022-11-15T07:56:48;2.40;99.90
29403;DHT22;16382;59.942;30.472;2022-11-15T07:59:34;2.30;99.90
29403;DHT22;16382;59.942;30.472;2022-11-15T08:02:20;2.40;99.90
29403;DHT22;16382;59.942;30.472;2022-11-15T08:05:06;2.40;99.90
29403;DHT22;16382;59.942;30.472;2022-11-15T08:07:55;2.40;99.90
29403;DHT22;16382;59.942;30.472;2022-11-15T08:10:40;2.40;99.90
29403;DHT22;16382;59.942;30.472;2022-11-15T08:13:27;2.50;99.90
29403;DHT22;16382;59.942;30.472;2022-11-15T08:16:13;2.60;99.90
29403;DHT22;16382;59.942;30.472;2022-11-15T08:18:59;2.60;99.90
29403;DHT22;16382;59.942;30.472;2022-11-15T08:21:45;2.70;99.90
29403;DHT22;16382;59.942;30.472;2022-11-15T08:24:32;2.70;99.90
29403;DHT22;16382;59.942;30.472;2022-11-15T08:27:18;2.70;99.90
29403;DHT22;16382;59.942;30.472;2022-11-15T08:30:05;2.80;99.90
29403;DHT22;16382;59.942;30.472;2022-11-15T08:32:53;2.80;99.90
29403;DHT22;16382;59.942;30.472;2022-11-15T08:35:42;2.80;99.90
29403;DHT22;16382;59.942;30.472;2022-11-15T08:38:29;2.80;99.90
29403;DHT22;16382;59.942;30.472;2022-11-15T08:41:23;2.80;99.90
29403;DHT22;16382;59.942;30.472;2022-11-15T08:44:11;2.80;99.90
29403;DHT22;16382;59.942;30.472;2022-11-15T08:46:57;2.90;99.90
29403;DHT22;16382;59.942;30.472;2022-11-15T08:49:43;2.90;99.90
29403;DHT22;16382;59.942;30.472;2022-11-15T08:52:30;2.90;99.90
29403;DHT22;16382;59.942;30.472;2022-11-15T08:55:16;2.90;99.90
29403;DHT22;16382;59.942;30.472;2022-11-15T08:58:04;3.00;99.90
29403;DHT22;16382;59.942;30.472;2022-11-15T09:00:50;2.90;99.90
29403;DHT22;16382;59.942;30.472;2022-11-15T09:03:39;2.90;99.90
29403;DHT22;16382;59.942;30.472;2022-11-15T09:06:26;2.90;99.90
29403;DHT22;16382;59.942;30.472;2022-11-15T09:09:12;3.00;99.90
29403;DHT22;16382;59.942;30.472;2022-11-15T09:11:58;3.00;99.90
29403;DHT22;16382;59.942;30.472;2022-11-15T09:14:45;3.00;99.90
29403;DHT22;16382;59.942;30.472;2022-11-15T09:17:31;3.00;99.90
29403;DHT22;16382;59.942;30.472;2022-11-15T09:20:18;3.00;99.90
29403;DHT22;16382;59.942;30.472;2022-11-15T09:23:04;3.00;99.90
29403;DHT22;16382;59.942;30.472;2022-11-15T09:25:51;3.00;99.90
29403;DHT22;16382;59.942;30.472;2022-11-15T09:28:37;3.10;99.90
29403;DHT22;16382;59.942;30.472;2022-11-15T09:31:27;3.10;99.90
29403;DHT22;16382;59.942;30.472;2022-11-15T09:34:14;3.10;99.90
29403;DHT22;16382;59.942;30.472;2022-11-15T09:37:00;3.10;99.90
29403;DHT22;16382;59.942;30.472;2022-11-15T09:39:46;3.20;99.90
29403;DHT22;16382;59.942;30.472;2022-11-15T09:42:46;3.20;99.90
29403;DHT22;16382;59.942;30.472;2022-11-15T09:45:53;3.10;99.90
29403;DHT22;16382;59.942;30.472;2022-11-15T09:48:56;3.10;99.90
29403;DHT22;16382;59.942;30.472;2022-11-15T09:52:03;3.10;99.90
29403;DHT22;16382;59.942;30.472;2022-11-15T09:54:33;3.10;99.90
29403;DHT22;16382;59.942;30.472;2022-11-15T09:57:06;3.10;99.90
29403;DHT22;16382;59.942;30.472;2022-11-15T09:59:47;3.10;99.90
29403;DHT22;16382;59.942;30.472;2022-11-15T10:02:40;3.00;99.90
29403;DHT22;16382;59.942;30.472;2022-11-15T10:05:19;3.00;99.90
29403;DHT22;16382;59.942;30.472;2022-11-15T10:07:55;3.00;99.90
29403;DHT22;16382;59.942;30.472;2022-11-15T10:10:34;3.10;99.90
29403;DHT22;16382;59.942;30.472;2022-11-15T10:13:12;3.10;99.90
29403;DHT22;16382;59.942;30.472;2022-11-15T10:15:43;3.10;99.90
29403;DHT22;16382;59.942;30.472;2022-11-15T10:18:16;3.10;99.90
29403;DHT22;16382;59.942;30.472;2022-11-15T10:20:49;3.10;99.90
29403;DHT22;16382;59.942;30.472;2022-11-15T10:23:19;3.10;99.90
29403;DHT22;16382;59.942;30.472;2022-11-15T10:25:51;3.10;99.90
29403;DHT22;16382;59.942;30.472;2022-11-15T10:28:22;3.10;99.90
29403;DHT22;16382;59.942;30.472;2022-11-15T10:30:54;3.20;99.90
29403;DHT22;16382;59.942;30.472;2022-11-15T10:33:33;3.20;99.90
29403;DHT22;16382;59.942;30.472;2022-11-15T10:36:21;3.20;99.90
29403;DHT22;16382;59.942;30.472;2022-11-15T10:38:56;3.20;99.90
29403;DHT22;16382;59.942;30.472;2022-11-15T10:41:34;3.20;99.90
29403;DHT22;16382;59.942;30.472;2022-11-15T10:44:17;3.20;99.90
29403;DHT22;16382;59.942;30.472;2022-11-15T10:46:48;3.20;99.90
29403;DHT22;16382;59.942;30.472;2022-11-15T10:49:31;3.10;99.90
29403;DHT22;16382;59.942;30.472;2022-11-15T10:52:03;3.10;99.90
29403;DHT22;16382;59.942;30.472;2022-11-15T10:54:44;3.10;99.90
29403;DHT22;16382;59.942;30.472;2022-11-15T10:57:16;3.10;99.90
29403;DHT22;16382;59.942;30.472;2022-11-15T10:59:47;3.10;99.90
29403;DHT22;16382;59.942;30.472;2022-11-15T11:02:31;3.10;99.90
29403;DHT22;16382;59.942;30.472;2022-11-15T11:05:04;3.10;99.90
29403;DHT22;16382;59.942;30.472;2022-11-15T11:07:35;3.10;99.90
29403;DHT22;16382;59.942;30.472;2022-11-15T11:10:18;3.10;99.90
29403;DHT22;16382;59.942;30.472;2022-11-15T11:12:46;3.00;99.90
29403;DHT22;16382;59.942;30.472;2022-11-15T11:15:15;3.00;99.90
29403;DHT22;16382;59.942;30.472;2022-11-15T11:18:01;3.00;99.90
29403;DHT22;16382;59.942;30.472;2022-11-15T11:20:36;3.10;99.90
29403;DHT22;16382;59.942;30.472;2022-11-15T11:23:22;3.20;99.90
29403;DHT22;16382;59.942;30.472;2022-11-15T11:26:11;3.20;99.90
29403;DHT22;16382;59.942;30.472;2022-11-15T11:28:50;3.20;99.90
29403;DHT22;16382;59.942;30.472;2022-11-15T11:31:30;3.30;99.90
29403;DHT22;16382;59.942;30.472;2022-11-15T11:34:12;3.30;99.90
29403;DHT22;16382;59.942;30.472;2022-11-15T11:36:48;3.30;99.90
29403;DHT22;16382;59.942;30.472;2022-11-15T11:39:34;3.30;99.90
29403;DHT22;16382;59.942;30.472;2022-11-15T11:42:13;3.30;99.90
29403;DHT22;16382;59.942;30.472;2022-11-15T11:44:51;3.30;99.90
29403;DHT22;16382;59.942;30.472;2022-11-15T11:47:24;3.20;99.90
29403;DHT22;16382;59.942;30.472;2022-11-15T11:50:00;3.20;99.90
29403;DHT22;16382;59.942;30.472;2022-11-15T11:52:34;3.20;99.90
29403;DHT22;16382;59.942;30.472;2022-11-15T11:55:14;3.20;99.90
29403;DHT22;16382;59.942;30.472;2022-11-15T11:57:46;3.20;99.90
29403;DHT22;16382;59.942;30.472;2022-11-15T12:00:20;3.20;99.90
29403;DHT22;16382;59.942;30.472;2022-11-15T12:02:59;3.20;99.90
29403;DHT22;16382;59.942;30.472;2022-11-15T12:05:35;3.20;99.90
29403;DHT22;16382;59.942;30.472;2022-11-15T12:08:04;3.20;99.90
29403;DHT22;16382;59.942;30.472;2022-11-15T12:10:46;3.20;99.90
29403;DHT22;16382;59.942;30.472;2022-11-15T12:13:21;3.10;99.90
29403;DHT22;16382;59.942;30.472;2022-11-15T12:15:56;3.10;99.90
29403;DHT22;16382;59.942;30.472;2022-11-15T12:18:28;3.10;99.90
29403;DHT22;16382;59.942;30.472;2022-11-15T12:20:59;3.00;99.90
29403;DHT22;16382;59.942;30.472;2022-11-15T12:23:30;3.00;99.90
29403;DHT22;16382;59.942;30.472;2022-11-15T12:26:04;3.00;99.90
29403;DHT22;16382;59.942;30.472;2022-11-15T12:28:37;3.10;99.90
29403;DHT22;16382;59.942;30.472;2022-11-15T12:31:11;3.10;99.90
29403;DHT22;16382;59.942;30.472;2022-11-15T12:33:44;3.00;99.90
29403;DHT22;16382;59.942;30.472;2022-11-15T12:36:33;3.00;99.90
29403;DHT22;16382;59.942;30.472;2022-11-15T12:39:03;3.00;99.90
29403;DHT22;16382;59.942;30.472;2022-11-15T12:41:33;3.00;99.90
29403;DHT22;16382;59.942;30.472;2022-11-15T12:44:01;3.00;99.90
29403;DHT22;16382;59.942;30.472;2022-11-15T12:47:02;2.90;99.90
29403;DHT22;16382;59.942;30.472;2022-11-15T12:49:45;2.90;99.90
29403;DHT22;16382;59.942;30.472;2022-11-15T12:52:14;3.00;99.90
29403;DHT22;16382;59.942;30.472;2022-11-15T12:54:59;3.00;99.90
29403;DHT22;16382;59.942;30.472;2022-11-15T12:57:40;2.90;99.90
29403;DHT22;16382;59.942;30.472;2022-11-15T13:00:36;2.90;99.90
29403;DHT22;16382;59.942;30.472;2022-11-15T13:03:23;2.90;99.90
29403;DHT22;16382;59.942;30.472;2022-11-15T13:06:09;2.90;99.90
29403;DHT22;16382;59.942;30.472;2022-11-15T13:12:58;2.80;99.90
29403;DHT22;16382;59.942;30.472;2022-11-15T13:15:51;2.80;99.90
29403;DHT22;16382;59.942;30.472;2022-11-15T13:18:30;2.80;99.90
29403;DHT22;16382;59.942;30.472;2022-11-15T13:21:05;2.80;99.90
29403;DHT22;16382;59.942;30.472;2022-11-15T13:24:03;2.80;99.90
29403;DHT22;16382;59.942;30.472;2022-11-15T13:26:31;2.80;99.90
29403;DHT22;16382;59.942;30.472;2022-11-15T13:29:00;2.80;99.90
29403;DHT22;16382;59.942;30.472;2022-11-15T13:31:40;2.80;99.90
29403;DHT22;16382;59.942;30.472;2022-11-15T13:34:26;2.80;99.90
29403;DHT22;16382;59.942;30.472;2022-11-15T13:36:56;2.80;99.90
29403;DHT22;16382;59.942;30.472;2022-11-15T13:39:28;2.90;99.90
29403;DHT22;16382;59.942;30.472;2022-11-15T13:41:58;2.80;99.90
29403;DHT22;16382;59.942;30.472;2022-11-15T13:44:28;2.80;99.90
29403;DHT22;16382;59.942;30.472;2022-11-15T13:47:04;2.80;99.90
29403;DHT22;16382;59.942;30.472;2022-11-15T13:49:34;2.80;99.90
29403;DHT22;16382;59.942;30.472;2022-11-15T13:52:04;2.80;99.90
29403;DHT22;16382;59.942;30.472;2022-11-15T13:54:35;2.80;99.90
29403;DHT22;16382;59.942;30.472;2022-11-15T13:57:10;2.80;99.90
29403;DHT22;16382;59.942;30.472;2022-11-15T13:59:48;2.70;99.90
29403;DHT22;16382;59.942;30.472;2022-11-15T14:02:26;2.80;99.90
29403;DHT22;16382;59.942;30.472;2022-11-15T14:04:59;2.70;99.90
29403;DHT22;16382;59.942;30.472;2022-11-15T14:07:30;2.70;99.90
29403;DHT22;16382;59.942;30.472;2022-11-15T14:09:58;2.70;99.90
29403;DHT22;16382;59.942;30.472;2022-11-15T14:12:50;2.70;99.90
29403;DHT22;16382;59.942;30.472;2022-11-15T14:15:28;2.70;99.90
29403;DHT22;16382;59.942;30.472;2022-11-15T14:17:58;2.70;99.90
29403;DHT22;16382;59.942;30.472;2022-11-15T14:20:32;2.60;99.90
29403;DHT22;16382;59.942;30.472;2022-11-15T14:23:02;2.60;99.90
29403;DHT22;16382;59.942;30.472;2022-11-15T14:25:33;2.60;99.90
29403;DHT22;16382;59.942;30.472;2022-11-15T14:28:13;2.60;99.90
29403;DHT22;16382;59.942;30.472;2022-11-15T14:30:45;2.60;99.90
29403;DHT22;16382;59.942;30.472;2022-11-15T14:33:21;2.70;99.90
29403;DHT22;16382;59.942;30.472;2022-11-15T14:35:50;2.70;99.90
29403;DHT22;16382;59.942;30.472;2022-11-15T14:38:17;2.70;99.90
29403;DHT22;16382;59.942;30.472;2022-11-15T14:40:45;2.70;99.90
29403;DHT22;16382;59.942;30.472;2022-11-15T14:43:12;2.60;99.90
29403;DHT22;16382;59.942;30.472;2022-11-15T14:45:40;2.60;99.90
29403;DHT22;16382;59.942;30.472;2022-11-15T14:48:09;2.60;99.90
29403;DHT22;16382;59.942;30.472;2022-11-15T14:50:37;2.60;99.90
29403;DHT22;16382;59.942;30.472;2022-11-15T14:53:04;2.60;99.90
29403;DHT22;16382;59.942;30.472;2022-11-15T14:55:33;2.60;99.90
29403;DHT22;16382;59.942;30.472;2022-11-15T14:58:02;2.60;99.90
29403;DHT22;16382;59.942;30.472;2022-11-15T15:00:31;2.60;99.90
29403;DHT22;16382;59.942;30.472;2022-11-15T15:02:59;2.70;99.90
29403;DHT22;16382;59.942;30.472;2022-11-15T15:05:44;2.70;99.90
29403;DHT22;16382;59.942;30.472;2022-11-15T15:08:13;2.80;99.90
29403;DHT22;16382;59.942;30.472;2022-11-15T15:10:42;2.80;99.90
29403;DHT22;16382;59.942;30.472;2022-11-15T15:13:16;2.80;99.90
29403;DHT22;16382;59.942;30.472;2022-11-15T15:15:45;2.80;99.90
29403;DHT22;16382;59.942;30.472;2022-11-15T15:18:12;2.80;99.90
29403;DHT22;16382;59.942;30.472;2022-11-15T15:20:43;2.80;99.90
29403;DHT22;16382;59.942;30.472;2022-11-15T15:23:16;2.80;99.90
29403;DHT22;16382;59.942;30.472;2022-11-15T15:25:46;2.80;99.90
29403;DHT22;16382;59.942;30.472;2022-11-15T15:28:16;2.80;99.90
29403;DHT22;16382;59.942;30.472;2022-11-15T15:30:44;2.90;99.90
29403;DHT22;16382;59.942;30.472;2022-11-15T15:33:15;2.90;99.90
29403;DHT22;16382;59.942;30.472;2022-11-15T15:35:44;2.90;99.90
29403;DHT22;16382;59.942;30.472;2022-11-15T15:38:12;2.90;99.90
29403;DHT22;16382;59.942;30.472;2022-11-15T15:40:41;2.90;99.90
29403;DHT22;16382;59.942;30.472;2022-11-15T15:43:08;2.90;99.90
29403;DHT22;16382;59.942;30.472;2022-11-15T15:45:37;2.90;99.90
29403;DHT22;16382;59.942;30.472;2022-11-15T15:48:05;2.90;99.90
29403;DHT22;16382;59.942;30.472;2022-11-15T15:50:34;2.80;99.90
29403;DHT22;16382;59.942;30.472;2022-11-15T15:53:04;2.70;99.90
29403;DHT22;16382;59.942;30.472;2022-11-15T15:55:32;2.70;99.90
29403;DHT22;16382;59.942;30.472;2022-11-15T15:58:00;2.70;99.90
29403;DHT22;16382;59.942;30.472;2022-11-15T16:00:28;2.70;99.90
29403;DHT22;16382;59.942;30.472;2022-11-15T16:02:59;2.80;99.90
29403;DHT22;16382;59.942;30.472;2022-11-15T16:05:27;2.80;99.90
29403;DHT22;16382;59.942;30.472;2022-11-15T16:07:54;2.80;99.90
29403;DHT22;16382;59.942;30.472;2022-11-15T16:10:25;2.80;99.90
29403;DHT22;16382;59.942;30.472;2022-11-15T16:12:54;2.80;99.90
29403;DHT22;16382;59.942;30.472;2022-11-15T16:15:24;2.80;99.90
29403;DHT22;16382;59.942;30.472;2022-11-15T16:17:53;2.80;99.90
29403;DHT22;16382;59.942;30.472;2022-11-15T16:20:31;2.80;99.90
29403;DHT22;16382;59.942;30.472;2022-11-15T16:23:01;2.80;99.90
29403;DHT22;16382;59.942;30.472;2022-11-15T16:25:37;2.80;99.90
29403;DHT22;16382;59.942;30.472;2022-11-15T16:28:21;2.80;99.90
29403;DHT22;16382;59.942;30.472;2022-11-15T16:30:58;2.80;99.90
29403;DHT22;16382;59.942;30.472;2022-11-15T16:33:27;2.90;99.90
29403;DHT22;16382;59.942;30.472;2022-11-15T16:35:54;2.90;99.90
29403;DHT22;16382;59.942;30.472;2022-11-15T16:38:22;2.90;99.90
29403;DHT22;16382;59.942;30.472;2022-11-15T16:40:51;2.90;99.90
29403;DHT22;16382;59.942;30.472;2022-11-15T16:43:19;2.90;99.90
29403;DHT22;16382;59.942;30.472;2022-11-15T16:45:50;2.90;99.90
29403;DHT22;16382;59.942;30.472;2022-11-15T16:48:23;3.00;99.90
29403;DHT22;16382;59.942;30.472;2022-11-15T16:50:54;3.00;99.90
29403;DHT22;16382;59.942;30.472;2022-11-15T16:53:23;3.00;99.90
29403;DHT22;16382;59.942;30.472;2022-11-15T16:55:52;3.10;99.90
29403;DHT22;16382;59.942;30.472;2022-11-15T16:58:21;3.10;99.90
29403;DHT22;16382;59.942;30.472;2022-11-15T17:00:53;3.10;99.90
29403;DHT22;16382;59.942;30.472;2022-11-15T17:03:22;3.10;99.90
29403;DHT22;16382;59.942;30.472;2022-11-15T17:05:50;3.10;99.90
29403;DHT22;16382;59.942;30.472;2022-11-15T17:08:18;3.20;99.90
29403;DHT22;16382;59.942;30.472;2022-11-15T17:10:47;3.10;99.90
29403;DHT22;16382;59.942;30.472;2022-11-15T17:13:17;3.20;99.90
29403;DHT22;16382;59.942;30.472;2022-11-15T17:15:44;3.20;99.90
29403;DHT22;16382;59.942;30.472;2022-11-15T17:18:15;3.20;99.90
29403;DHT22;16382;59.942;30.472;2022-11-15T17:20:42;3.20;99.90
29403;DHT22;16382;59.942;30.472;2022-11-15T17:23:12;3.20;99.90
29403;DHT22;16382;59.942;30.472;2022-11-15T17:25:40;3.20;99.90
29403;DHT22;16382;59.942;30.472;2022-11-15T17:28:07;3.20;99.90
29403;DHT22;16382;59.942;30.472;2022-11-15T17:30:39;3.20;99.90
29403;DHT22;16382;59.942;30.472;2022-11-15T17:33:07;3.20;99.90
29403;DHT22;16382;59.942;30.472;2022-11-15T17:35:34;3.20;99.90